createdAt,value
2023-04-18T00:01:04.775Z,10
2023-04-18T00:16:04.971Z,11
2023-04-18T00:31:05.313Z,12
2023-04-18T00:46:05.773Z,11
2023-04-18T01:01:05.026Z,11
2023-04-18T01:16:05.345Z,12
2023-04-18T01:31:05.837Z,12
2023-04-18T01:46:05.297Z,12
2023-04-18T02:01:04.714Z,12
2023-04-18T02:16:05.677Z,11
2023-04-18T02:31:04.960Z,10
2023-04-18T02:46:05.268Z,9
2023-04-18T03:01:05.500Z,9
2023-04-18T03:16:05.186Z,13
2023-04-18T03:31:05.935Z,17
2023-04-18T03:46:05.918Z,21
2023-04-18T04:01:05.576Z,23
2023-04-18T04:16:06.078Z,28
2023-04-18T04:31:05.548Z,31
2023-04-18T04:46:05.808Z,32
2023-04-18T05:01:05.279Z,32
2023-04-18T05:16:05.902Z,30
2023-04-18T05:31:05.860Z,33
2023-04-18T05:46:05.292Z,31
2023-04-18T06:01:04.898Z,30
2023-04-18T06:16:04.830Z,37
2023-04-18T06:31:05.628Z,31
2023-04-18T06:46:05.073Z,22
2023-04-18T07:01:05.346Z,31
2023-04-18T07:16:05.625Z,41
2023-04-18T07:31:05.061Z,19
2023-04-18T07:46:05.527Z,23
2023-04-18T08:01:04.929Z,27
2023-04-18T08:16:06.007Z,23
2023-04-18T08:31:04.790Z,18
2023-04-18T08:46:04.947Z,16
2023-04-18T09:01:05.518Z,15
2023-04-18T09:16:05.644Z,15
2023-04-18T09:31:04.989Z,12
2023-04-18T09:46:05.076Z,13
2023-04-18T10:01:05.368Z,13
2023-04-18T10:16:05.441Z,9
2023-04-18T10:31:05.188Z,9
2023-04-18T10:46:05.135Z,9
2023-04-18T11:01:05.004Z,7
2023-04-18T11:16:05.475Z,8
2023-04-18T11:31:05.747Z,7
2023-04-18T11:46:05.091Z,7
2023-04-18T12:01:05.731Z,9
2023-04-18T12:16:05.476Z,4
2023-04-18T12:31:04.895Z,5
2023-04-18T12:46:05.458Z,7
2023-04-18T13:01:06.016Z,5
2023-04-18T13:16:05.804Z,6
2023-04-18T13:31:05.748Z,9
2023-04-18T13:46:05.720Z,7
2023-04-18T14:01:05.071Z,7
2023-04-18T14:16:05.430Z,8
2023-04-18T14:31:05.820Z,7
2023-04-18T14:46:05.270Z,7
2023-04-18T15:01:05.073Z,8
2023-04-18T15:16:03.989Z,9
2023-04-18T15:31:04.991Z,8
2023-04-18T15:46:05.287Z,8
2023-04-18T16:01:05.709Z,7
2023-04-18T16:16:05.463Z,11
2023-04-18T16:31:05.421Z,12
2023-04-18T16:46:04.937Z,22
2023-04-18T17:01:05.421Z,15
2023-04-18T17:16:05.941Z,17
2023-04-18T17:31:05.364Z,17
2023-04-18T17:46:05.777Z,33
2023-04-18T18:01:04.681Z,14
2023-04-18T18:16:05.694Z,16
2023-04-18T18:31:05.053Z,15
2023-04-18T18:46:05.061Z,16
2023-04-18T19:01:05.438Z,19
2023-04-18T19:16:05.104Z,24
2023-04-18T19:31:05.771Z,25
2023-04-18T19:46:05.380Z,27
2023-04-18T20:01:05.586Z,34
2023-04-18T20:16:05.399Z,38
2023-04-18T20:31:05.814Z,45
2023-04-18T20:46:04.993Z,49
2023-04-18T21:01:05.363Z,50
2023-04-18T21:16:05.844Z,52
2023-04-18T21:31:05.925Z,58
2023-04-18T21:46:05.498Z,45
2023-04-18T22:01:06.011Z,48
2023-04-18T22:16:05.458Z,49
2023-04-18T22:31:06.095Z,54
2023-04-18T22:46:05.823Z,46
2023-04-18T23:01:05.317Z,49
2023-04-18T23:16:05.480Z,49
2023-04-18T23:31:05.929Z,42
2023-04-18T23:46:05.136Z,40
